PDT,Max TemperatureF,Mean TemperatureF,Min TemperatureF,Max Dew PointF,MeanDew PointF,Min DewpointF,Max Humidity, Mean Humidity, Min Humidity, Max Sea Level PressureIn, Mean Sea Level PressureIn, Min Sea Level PressureIn, Max VisibilityMiles, Mean VisibilityMiles, Min VisibilityMiles, Max Wind SpeedMPH, Mean Wind SpeedMPH, Max Gust SpeedMPH,PrecipitationIn, CloudCover, Events, WindDirDegrees
2011-10-1,74,64,53,56,52,48,89,69,49,30.06,30.03,29.99,10,10,9,17,7,22,0.00,1,,227
2011-10-2,72,65,58,57,55,52,93,71,49,30.13,30.06,30.01,10,9,5,16,5,21,0.00,4,,289
2011-10-3,69,60,50,58,54,46,90,72,53,30.04,29.96,29.89,10,9,6,14,6,18,0.10,4,Rain,302
2011-10-4,67,63,58,58,55,50,93,76,58,29.99,29.92,29.76,10,7,2,20,6,26,0.19,7,Rain,271
2011-10-5,66,60,53,57,52,46,93,71,48,29.93,29.80,29.68,10,7,1,24,10,31,1.00,6,Rain,243
2011-10-6,65,57,49,53,50,47,96,76,56,30.12,29.99,29.94,10,10,6,20,6,23,0.11,5,Rain,186
2011-10-7,70,59,47,54,49,45,100,70,40,30.20,30.16,30.12,10,10,7,16,5,20,0.00,0,,256
2011-10-8,72,61,50,54,52,47,93,71,49,30.15,30.10,30.05,10,10,9,16,7,18,0.00,2,,296
2011-10-9,74,64,53,56,53,52,100,77,53,30.09,30.03,29.95,10,6,1,18,6,23,0.00,5,,107
2011-10-10,74,65,55,64,59,51,100,82,64,30.06,30.00,29.97,10,6,1,13,4,16,0.04,8,Rain,261
2011-10-11,75,68,61,63,62,57,100,84,68,30.10,30.05,30.02,10,6,0,15,5,21,T,6,Fog,285
2011-10-12,87,71,54,61,55,48,97,66,34,30.10,30.04,29.96,10,8,0,25,3,102,0.00,1,Fog,235
2011-10-13,92,73,54,56,50,37,86,51,16,30.00,29.90,29.81,10,10,8,13,5,16,0.00,0,,102
2011-10-14,86,73,60,57,54,50,84,61,37,29.87,29.83,29.79,10,10,7,17,9,21,0.00,0,,28
2011-10-15,69,63,56,57,56,54,93,78,63,30.01,29.92,29.87,10,7,0,15,6,18,0.00,3,Fog,303
2011-10-16,73,65,56,57,56,53,93,75,57,30.11,30.06,29.99,10,10,7,14,6,18,0.00,1,Rain,170
2011-10-17,88,71,53,60,55,50,100,69,37,30.13,30.06,30.01,10,6,0,16,6,20,0.00,3,Fog,305
2011-10-18,62,58,54,57,55,53,100,89,78,30.11,30.07,30.03,10,4,0,15,5,18,0.02,8,Fog,278
2011-10-19,68,62,56,57,54,52,87,75,63,30.08,30.04,29.99,10,9,5,33,6,94,T,4,,273
2011-10-20,62,58,53,55,53,50,100,89,78,30.13,30.04,29.99,9,5,0,14,5,17,0.01,8,Fog,205
2011-10-21,68,60,52,56,54,50,93,80,67,30.21,30.15,30.10,10,7,2,13,3,15,0.00,5,,288
2011-10-22,90,71,51,55,50,42,89,55,21,30.14,30.06,29.98,10,9,7,14,5,16,0.00,0,,105
2011-10-23,92,75,58,55,50,44,78,50,22,30.01,29.96,29.90,10,10,10,21,9,25,0.00,0,,78
2011-10-24,67,61,54,56,54,52,100,84,68,30.09,30.03,29.97,10,6,0,17,7,22,0.00,6,Fog,292
2011-10-25,68,61,53,54,50,46,83,66,48,30.13,30.09,30.05,10,9,8,14,5,20,0.00,4,,281
2011-10-26,74,60,46,52,47,29,93,56,19,30.17,30.11,30.07,10,7,2,16,5,21,0.00,4,,89
2011-10-27,77,61,44,52,39,26,83,50,16,30.09,30.06,30.02,10,10,8,17,7,21,0.00,0,,74
2011-10-28,79,64,48,51,42,32,80,50,19,30.14,30.10,30.05,10,10,8,16,6,18,0.00,0,,85
2011-10-29,81,63,45,50,44,39,83,55,26,30.17,30.12,30.05,10,10,8,15,5,16,0.00,0,,111
2011-10-30,80,65,49,54,47,37,100,63,25,30.13,30.08,30.03,10,7,0,16,7,25,0.00,3,Fog,319
2011-10-31,71,59,47,54,50,45,100,79,58,30.10,30.04,29.98,10,6,0,15,7,18,0.00,1,Fog,307